Time;durP1;ratioP1;P1;durP2;ratioP2;P2;SDS_P1;SDS_P2;PMS_P1;PMS_P2;Temp;Humidity;BMP_temperature;BMP_pressure;BME280_temperature;BME280_humidity;BME280_pressure;Samples;Min_cycle;Max_cycle;Signal;HPM_P1;HPM_P2
2021/12/12 00:01:45;;;;;;;124.07;46.45;;;;;;;;;;6096721;23;20358;-93
2021/12/12 00:04:14;;;;;;;115.90;45.97;;;;;;;;;;6100196;23;20037;-93
2021/12/12 00:06:49;;;;;;;120.32;44.95;;;;;;;;;;6099898;23;20101;-94
2021/12/12 00:09:21;;;;;;;127.88;47.55;;;;;;;;;;6099859;23;20107;-94
2021/12/12 00:11:47;;;;;;;118.10;44.15;;;;;;;;;;6099308;23;20455;-94
2021/12/12 00:14:16;;;;;;;112.10;44.13;;;;;;;;;;6099657;23;20025;-93
2021/12/12 00:16:43;;;;;;;113.57;45.55;;;;;;;;;;6099683;23;20025;-94
2021/12/12 00:19:10;;;;;;;116.00;43.70;;;;;;;;;;6099757;23;20018;-93
2021/12/12 00:21:37;;;;;;;115.10;43.60;;;;;;;;;;6100118;23;20021;-94
2021/12/12 00:24:05;;;;;;;107.00;42.58;;;;;;;;;;6099405;23;20028;-93
2021/12/12 00:26:31;;;;;;;105.07;42.55;;;;;;;;;;6099333;23;20021;-92
2021/12/12 00:28:57;;;;;;;105.57;41.80;;;;;;;;;;6099604;23;20243;-93
2021/12/12 00:31:24;;;;;;;99.55;43.58;;;;;;;;;;6099928;23;20026;-93
2021/12/12 00:33:52;;;;;;;115.57;44.67;;;;;;;;;;6099920;23;20014;-93
2021/12/12 00:36:18;;;;;;;115.57;44.72;;;;;;;;;;6100084;23;20425;-94
2021/12/12 00:38:51;;;;;;;99.22;42.38;;;;;;;;;;6099764;23;20050;-92
2021/12/12 00:41:20;;;;;;;101.47;40.10;;;;;;;;;;6099415;23;20029;-93
2021/12/12 00:43:48;;;;;;;116.38;45.38;;;;;;;;;;6099642;23;20014;-93
2021/12/12 00:46:15;;;;;;;108.15;43.80;;;;;;;;;;6099910;23;20022;-93
2021/12/12 00:48:42;;;;;;;106.43;42.60;;;;;;;;;;6099437;23;20022;-93
2021/12/12 00:51:11;;;;;;;105.53;41.40;;;;;;;;;;6099573;23;20026;-93
2021/12/12 00:53:38;;;;;;;98.82;39.38;;;;;;;;;;6099854;23;20453;-93
2021/12/12 00:56:04;;;;;;;106.32;44.65;;;;;;;;;;6098864;23;20018;-93
2021/12/12 00:58:30;;;;;;;110.47;45.92;;;;;;;;;;6099700;23;20018;-93
2021/12/12 01:01:03;;;;;;;114.25;43.78;;;;;;;;;;6099350;23;20918;-93
2021/12/12 01:03:40;;;;;;;115.10;43.20;;;;;;;;;;6100042;23;20025;-93
2021/12/12 01:06:07;;;;;;;103.05;42.55;;;;;;;;;;6099827;23;20616;-93
2021/12/12 01:08:34;;;;;;;113.68;45.85;;;;;;;;;;6099778;23;20064;-93
2021/12/12 01:11:04;;;;;;;106.72;44.47;;;;;;;;;;6099008;23;20021;-93
2021/12/12 01:13:30;;;;;;;108.88;42.80;;;;;;;;;;6099527;23;20065;-93
2021/12/12 01:16:01;;;;;;;100.95;40.55;;;;;;;;;;6097599;23;20029;-93
2021/12/12 01:18:33;;;;;;;114.22;48.97;;;;;;;;;;6098312;23;20018;-93
2021/12/12 01:21:01;;;;;;;104.32;41.90;;;;;;;;;;6097963;23;20021;-93
2021/12/12 01:23:40;;;;;;;105.53;43.95;;;;;;;;;;6073611;23;20022;-93
2021/12/12 01:26:07;;;;;;;111.68;41.08;;;;;;;;;;6096938;23;20390;-92
2021/12/12 01:28:35;;;;;;;98.60;39.42;;;;;;;;;;6098263;23;20022;-93
2021/12/12 01:31:03;;;;;;;108.95;44.65;;;;;;;;;;6098018;23;20032;-93
2021/12/12 01:33:36;;;;;;;103.72;41.85;;;;;;;;;;6098273;23;20029;-92
2021/12/12 01:36:02;;;;;;;114.30;43.10;;;;;;;;;;6098052;23;20022;-93
2021/12/12 01:41:13;;;;;;;97.55;39.22;;;;;;;;;;6097722;23;20018;-93
2021/12/12 01:43:44;;;;;;;97.25;40.67;;;;;;;;;;6097607;23;20028;-93
2021/12/12 01:46:20;;;;;;;99.10;41.63;;;;;;;;;;6097832;23;20010;-94
2021/12/12 01:49:00;;;;;;;103.55;40.13;;;;;;;;;;6097283;23;20025;-93
2021/12/12 01:51:27;;;;;;;105.10;38.38;;;;;;;;;;6098186;23;20025;-93
2021/12/12 01:53:55;;;;;;;107.63;41.58;;;;;;;;;;6096944;23;20014;-93
2021/12/12 01:56:49;;;;;;;95.43;40.33;;;;;;;;;;6097699;23;20106;-93
2021/12/12 01:59:15;;;;;;;108.47;41.95;;;;;;;;;;6097750;23;20029;-91
2021/12/12 02:01:46;;;;;;;98.28;40.10;;;;;;;;;;6097425;23;20010;-92
2021/12/12 02:04:14;;;;;;;103.95;39.15;;;;;;;;;;6097782;23;20099;-94
2021/12/12 02:06:42;;;;;;;93.47;38.55;;;;;;;;;;6097556;23;20045;-94
2021/12/12 02:09:10;;;;;;;100.90;39.53;;;;;;;;;;6097085;23;20018;-94
2021/12/12 02:11:37;;;;;;;107.25;39.20;;;;;;;;;;6097717;23;20022;-92
2021/12/12 02:14:09;;;;;;;95.13;36.80;;;;;;;;;;6097351;23;20424;-93
2021/12/12 02:16:37;;;;;;;95.70;37.40;;;;;;;;;;6097745;23;20022;-94
2021/12/12 02:19:04;;;;;;;97.00;41.20;;;;;;;;;;6097205;23;20451;-93
2021/12/12 02:21:43;;;;;;;99.35;41.35;;;;;;;;;;6097612;23;20021;-93
2021/12/12 02:35:25;;;;;;;79.95;33.83;;;;;;;;;;6097388;23;20025;-91
2021/12/12 02:37:53;;;;;;;71.53;30.80;;;;;;;;;;6096557;23;20028;-93
2021/12/12 02:40:22;;;;;;;75.10;32.72;;;;;;;;;;6096734;23;20017;-93
2021/12/12 02:42:48;;;;;;;82.28;33.80;;;;;;;;;;6096630;23;20021;-92
2021/12/12 02:45:17;;;;;;;76.53;35.83;;;;;;;;;;6097003;23;20080;-92
2021/12/12 02:47:45;;;;;;;74.97;32.88;;;;;;;;;;6096991;23;20069;-94
2021/12/12 02:50:17;;;;;;;73.45;30.63;;;;;;;;;;6097097;23;20104;-92
2021/12/12 02:52:45;;;;;;;64.63;29.83;;;;;;;;;;6096314;23;20065;-93
2021/12/12 02:55:15;;;;;;;78.43;30.20;;;;;;;;;;6097066;23;20018;-93
2021/12/12 02:57:41;;;;;;;70.40;30.80;;;;;;;;;;6096911;23;20018;-93
2021/12/12 03:00:09;;;;;;;73.63;31.50;;;;;;;;;;6096697;23;20466;-92
2021/12/12 03:02:45;;;;;;;81.22;33.28;;;;;;;;;;6097012;23;20024;-93
2021/12/12 03:05:13;;;;;;;78.30;32.95;;;;;;;;;;6096724;23;20022;-93
2021/12/12 03:07:39;;;;;;;72.13;29.50;;;;;;;;;;6096629;23;20332;-93
2021/12/12 03:10:07;;;;;;;58.60;26.67;;;;;;;;;;6096445;23;20025;-93
2021/12/12 03:12:35;;;;;;;69.03;30.58;;;;;;;;;;6096961;23;20536;-93
2021/12/12 03:15:06;;;;;;;52.35;24.60;;;;;;;;;;6096555;23;20117;-92
2021/12/12 03:17:33;;;;;;;58.13;28.50;;;;;;;;;;6096863;23;20104;-94
2021/12/12 03:20:03;;;;;;;64.85;27.65;;;;;;;;;;6096078;23;20068;-93
2021/12/12 03:22:29;;;;;;;69.72;28.15;;;;;;;;;;6096833;23;20469;-93
2021/12/12 03:24:55;;;;;;;70.28;29.30;;;;;;;;;;6096059;23;20022;-93
2021/12/12 03:27:21;;;;;;;57.25;26.85;;;;;;;;;;6096554;23;20069;-93
2021/12/12 03:29:48;;;;;;;66.68;26.50;;;;;;;;;;6096371;23;20454;-93
2021/12/12 03:32:16;;;;;;;61.50;27.30;;;;;;;;;;6096575;23;20029;-92
2021/12/12 03:34:45;;;;;;;57.58;26.20;;;;;;;;;;6096170;23;20018;-93
2021/12/12 03:37:12;;;;;;;54.15;25.83;;;;;;;;;;6096267;23;20028;-92
2021/12/12 03:39:40;;;;;;;55.97;27.85;;;;;;;;;;6096750;23;20025;-93
2021/12/12 03:42:08;;;;;;;59.55;26.50;;;;;;;;;;6096649;23;20018;-92
2021/12/12 03:44:35;;;;;;;55.97;26.38;;;;;;;;;;6096663;23;20473;-92
2021/12/12 03:47:06;;;;;;;56.05;24.65;;;;;;;;;;6096491;23;20097;-93
2021/12/12 03:49:33;;;;;;;52.67;25.10;;;;;;;;;;6096080;23;20018;-94
2021/12/12 03:51:59;;;;;;;59.75;26.35;;;;;;;;;;6096567;23;20362;-93
2021/12/12 03:54:26;;;;;;;53.17;23.15;;;;;;;;;;6096533;23;20013;-93
2021/12/12 03:56:51;;;;;;;61.95;26.48;;;;;;;;;;6096443;23;20022;-93
2021/12/12 03:59:18;;;;;;;56.28;24.30;;;;;;;;;;6096757;23;20165;-92
2021/12/12 04:01:46;;;;;;;63.33;25.55;;;;;;;;;;6096330;23;20032;-92
2021/12/12 04:04:14;;;;;;;62.47;28.25;;;;;;;;;;6096142;23;20057;-92
2021/12/12 04:06:40;;;;;;;54.30;24.73;;;;;;;;;;6096451;23;20354;-92
2021/12/12 04:09:07;;;;;;;46.45;24.10;;;;;;;;;;6096429;23;20351;-93
2021/12/12 04:11:38;;;;;;;61.92;24.75;;;;;;;;;;6096311;23;20235;-93
2021/12/12 04:14:06;;;;;;;59.78;24.35;;;;;;;;;;6096503;23;20014;-93
2021/12/12 04:16:34;;;;;;;42.13;21.67;;;;;;;;;;6096846;23;20391;-93
2021/12/12 04:19:00;;;;;;;49.58;22.83;;;;;;;;;;6095835;23;20015;-92
2021/12/12 04:21:26;;;;;;;47.88;22.50;;;;;;;;;;6096511;23;20025;-92
2021/12/12 04:23:53;;;;;;;46.80;21.92;;;;;;;;;;6096103;23;20093;-92
2021/12/12 04:26:21;;;;;;;47.15;21.70;;;;;;;;;;6096447;23;20060;-91
2021/12/12 04:28:56;;;;;;;47.45;20.63;;;;;;;;;;6096258;23;20489;-93
2021/12/12 04:31:22;;;;;;;46.42;22.13;;;;;;;;;;6096154;23;20022;-90
2021/12/12 04:33:48;;;;;;;48.60;23.67;;;;;;;;;;6095953;23;20245;-91
2021/12/12 04:36:14;;;;;;;47.40;22.38;;;;;;;;;;6096497;23;20022;-91
2021/12/12 04:38:40;;;;;;;44.33;20.85;;;;;;;;;;6096671;23;20051;-92
2021/12/12 04:41:06;;;;;;;45.00;19.45;;;;;;;;;;6096069;23;20018;-92
2021/12/12 04:43:32;;;;;;;44.65;20.67;;;;;;;;;;6096389;23;20018;-92
2021/12/12 04:46:09;;;;;;;37.92;19.75;;;;;;;;;;6096184;23;20018;-92
2021/12/12 04:51:42;;;;;;;37.63;19.10;;;;;;;;;;6098210;23;20029;-92
2021/12/12 04:54:10;;;;;;;39.88;19.23;;;;;;;;;;6098299;23;20054;-93
2021/12/12 04:56:50;;;;;;;33.97;17.40;;;;;;;;;;6098500;23;20025;-92
2021/12/12 04:59:32;;;;;;;37.35;20.20;;;;;;;;;;6098213;23;20335;-92
2021/12/12 05:02:17;;;;;;;33.05;17.88;;;;;;;;;;6097638;23;20141;-92
2021/12/12 05:04:59;;;;;;;28.50;16.70;;;;;;;;;;6097659;23;20463;-94
2021/12/12 05:07:31;;;;;;;29.10;17.83;;;;;;;;;;6098128;23;20029;-92
2021/12/12 05:10:04;;;;;;;33.17;17.25;;;;;;;;;;6097978;23;20021;-92
2021/12/12 05:12:33;;;;;;;32.85;17.58;;;;;;;;;;6098046;23;20018;-93
2021/12/12 05:15:01;;;;;;;33.90;17.80;;;;;;;;;;6097624;23;20014;-92
2021/12/12 05:17:29;;;;;;;34.92;17.83;;;;;;;;;;6097634;23;20022;-92
2021/12/12 05:19:59;;;;;;;34.42;17.33;;;;;;;;;;6097704;23;20018;-92
2021/12/12 05:22:34;;;;;;;32.10;17.00;;;;;;;;;;6097807;23;20029;-92
2021/12/12 05:25:02;;;;;;;37.47;16.83;;;;;;;;;;6096965;23;20101;-93
2021/12/12 05:27:29;;;;;;;28.13;15.43;;;;;;;;;;6097718;23;20021;-92
2021/12/12 05:30:07;;;;;;;24.90;14.35;;;;;;;;;;6097440;23;20018;-91
2021/12/12 05:32:34;;;;;;;27.98;15.82;;;;;;;;;;6097447;23;20450;-92
2021/12/12 05:35:00;;;;;;;27.38;14.35;;;;;;;;;;6097574;23;20056;-92
2021/12/12 05:37:27;;;;;;;24.40;13.05;;;;;;;;;;6097635;23;20101;-92
2021/12/12 05:39:54;;;;;;;22.23;14.20;;;;;;;;;;6097125;23;20454;-92
2021/12/12 05:42:21;;;;;;;22.98;13.98;;;;;;;;;;6097604;23;20018;-93
2021/12/12 05:44:47;;;;;;;26.13;14.52;;;;;;;;;;6097269;23;20018;-91
2021/12/12 05:47:13;;;;;;;23.73;14.23;;;;;;;;;;6097498;23;20120;-92
2021/12/12 05:49:41;;;;;;;23.10;15.30;;;;;;;;;;6097565;23;20014;-92
2021/12/12 05:52:12;;;;;;;24.90;13.52;;;;;;;;;;6097714;23;20033;-92
2021/12/12 05:54:39;;;;;;;23.42;13.35;;;;;;;;;;6097451;23;20029;-92
2021/12/12 05:57:05;;;;;;;17.42;12.23;;;;;;;;;;6097533;23;20355;-92
2021/12/12 05:59:31;;;;;;;23.63;13.20;;;;;;;;;;6097279;23;20100;-91
2021/12/12 06:02:00;;;;;;;26.05;14.70;;;;;;;;;;6096927;23;20021;-92
2021/12/12 06:04:26;;;;;;;21.48;13.90;;;;;;;;;;6097639;23;20112;-93
2021/12/12 06:06:53;;;;;;;24.45;13.77;;;;;;;;;;6096913;23;20017;-92
2021/12/12 06:09:20;;;;;;;23.15;14.73;;;;;;;;;;6097661;23;20018;-92
2021/12/12 06:11:47;;;;;;;27.85;15.23;;;;;;;;;;6096817;23;20065;-92
2021/12/12 06:14:14;;;;;;;26.38;14.93;;;;;;;;;;6096709;23;20048;-94
2021/12/12 06:16:40;;;;;;;26.50;14.20;;;;;;;;;;6097461;23;20080;-93
2021/12/12 06:19:09;;;;;;;23.23;15.32;;;;;;;;;;6097455;23;20351;-92
2021/12/12 06:21:35;;;;;;;24.40;15.32;;;;;;;;;;6097343;23;20014;-93
2021/12/12 06:24:02;;;;;;;24.95;15.13;;;;;;;;;;6096836;23;20022;-92
2021/12/12 06:26:28;;;;;;;30.60;15.27;;;;;;;;;;6097320;23;20014;-92
2021/12/12 06:28:54;;;;;;;23.13;14.77;;;;;;;;;;6096256;23;20033;-92
2021/12/12 06:31:20;;;;;;;24.70;14.90;;;;;;;;;;6097256;23;20017;-93
2021/12/12 06:33:46;;;;;;;21.05;13.02;;;;;;;;;;6096938;23;20740;-92
2021/12/12 06:36:13;;;;;;;26.80;15.77;;;;;;;;;;6097023;23;20029;-92
2021/12/12 06:38:40;;;;;;;24.52;15.13;;;;;;;;;;6097357;23;20018;-92
2021/12/12 06:41:08;;;;;;;24.88;14.65;;;;;;;;;;6097170;23;20014;-92
2021/12/12 06:43:34;;;;;;;25.90;14.82;;;;;;;;;;6096353;23;20032;-92
2021/12/12 06:46:01;;;;;;;22.02;14.20;;;;;;;;;;6096733;23;20014;-92
2021/12/12 06:48:27;;;;;;;22.92;14.43;;;;;;;;;;6095947;23;20097;-93
2021/12/12 06:50:54;;;;;;;23.00;14.15;;;;;;;;;;6095564;23;20323;-93
2021/12/12 06:53:22;;;;;;;24.05;14.00;;;;;;;;;;6097044;23;20022;-93
2021/12/12 06:55:48;;;;;;;25.83;14.80;;;;;;;;;;6096473;23;20025;-93
2021/12/12 06:58:15;;;;;;;25.92;15.00;;;;;;;;;;6096567;23;20028;-93
2021/12/12 07:00:42;;;;;;;22.60;13.90;;;;;;;;;;6096559;23;20014;-94
2021/12/12 07:03:08;;;;;;;25.73;14.43;;;;;;;;;;6097122;23;20018;-93
2021/12/12 07:05:34;;;;;;;23.73;13.90;;;;;;;;;;6096974;23;20476;-93
2021/12/12 07:08:03;;;;;;;29.73;15.43;;;;;;;;;;6096461;23;20104;-93
2021/12/12 07:10:30;;;;;;;25.25;14.27;;;;;;;;;;6096941;23;20335;-92
2021/12/12 07:12:56;;;;;;;24.70;15.27;;;;;;;;;;6095476;23;20097;-93
2021/12/12 07:15:25;;;;;;;23.63;14.75;;;;;;;;;;6096495;23;20096;-94
2021/12/12 07:17:55;;;;;;;22.30;14.15;;;;;;;;;;6096404;23;20454;-94
2021/12/12 07:20:22;;;;;;;23.25;14.25;;;;;;;;;;6096487;23;20022;-95
2021/12/12 07:22:48;;;;;;;26.60;13.40;;;;;;;;;;6096422;23;20070;-95
2021/12/12 07:25:15;;;;;;;24.50;14.65;;;;;;;;;;6096633;23;20111;-94
2021/12/12 07:27:41;;;;;;;27.27;15.88;;;;;;;;;;6095658;23;20020;-95
2021/12/12 07:30:07;;;;;;;23.23;13.70;;;;;;;;;;6096607;23;20101;-95
2021/12/12 07:32:33;;;;;;;23.23;13.70;;;;;;;;;;6096522;23;20056;-95
2021/12/12 07:35:00;;;;;;;20.90;12.73;;;;;;;;;;6096155;23;20014;-95
2021/12/12 07:37:26;;;;;;;23.40;13.45;;;;;;;;;;6096915;23;20449;-94
2021/12/12 07:39:52;;;;;;;23.98;13.55;;;;;;;;;;6096630;23;20097;-94
2021/12/12 07:42:18;;;;;;;26.38;13.90;;;;;;;;;;6096403;23;20022;-95
2021/12/12 07:44:45;;;;;;;27.83;14.80;;;;;;;;;;6096245;23;20018;-94
2021/12/12 07:47:13;;;;;;;23.23;14.43;;;;;;;;;;6096620;23;20022;-94
2021/12/12 07:49:42;;;;;;;23.30;13.48;;;;;;;;;;6096761;23;20358;-95
2021/12/12 07:52:10;;;;;;;24.67;13.75;;;;;;;;;;6096642;23;20024;-96
2021/12/12 07:54:37;;;;;;;24.90;12.98;;;;;;;;;;6095456;23;20021;-92
2021/12/12 07:57:03;;;;;;;26.25;13.75;;;;;;;;;;6095232;23;20032;-95
2021/12/12 07:59:29;;;;;;;22.27;13.52;;;;;;;;;;6096121;23;20014;-95
2021/12/12 08:01:55;;;;;;;23.02;13.13;;;;;;;;;;6096463;23;20025;-94
2021/12/12 08:04:25;;;;;;;25.42;14.07;;;;;;;;;;6096658;23;20018;-94
2021/12/12 08:06:51;;;;;;;22.70;12.10;;;;;;;;;;6096424;23;20450;-94
2021/12/12 08:09:17;;;;;;;20.25;11.75;;;;;;;;;;6096827;23;20018;-93
2021/12/12 08:11:44;;;;;;;24.25;13.05;;;;;;;;;;6095723;23;20026;-95
2021/12/12 08:14:12;;;;;;;21.10;12.20;;;;;;;;;;6096287;23;20018;-95
2021/12/12 08:16:39;;;;;;;28.17;14.00;;;;;;;;;;6096317;23;20030;-94
2021/12/12 08:19:05;;;;;;;27.88;13.85;;;;;;;;;;6096159;23;20021;-94
2021/12/12 08:21:33;;;;;;;28.90;14.63;;;;;;;;;;6096052;23;20049;-93
2021/12/12 08:24:05;;;;;;;31.77;14.45;;;;;;;;;;6096882;23;20125;-95
2021/12/12 08:26:32;;;;;;;29.50;16.02;;;;;;;;;;6098214;23;20021;-95
2021/12/12 08:28:58;;;;;;;31.67;16.38;;;;;;;;;;6097973;23;20405;-93
2021/12/12 08:31:26;;;;;;;28.73;15.07;;;;;;;;;;6098165;23;20021;-93
2021/12/12 08:33:52;;;;;;;30.55;15.75;;;;;;;;;;6097887;23;20044;-93
2021/12/12 08:36:18;;;;;;;30.75;16.00;;;;;;;;;;6098462;23;20268;-92
2021/12/12 08:38:45;;;;;;;31.15;15.90;;;;;;;;;;6097937;23;20069;-93
2021/12/12 08:41:11;;;;;;;39.88;18.20;;;;;;;;;;6097709;23;20013;-93
2021/12/12 08:43:37;;;;;;;36.63;17.33;;;;;;;;;;6097353;23;20075;-92
2021/12/12 08:46:05;;;;;;;31.55;16.42;;;;;;;;;;6096656;23;20026;-93
2021/12/12 08:48:33;;;;;;;29.73;14.90;;;;;;;;;;6098100;23;20017;-94
2021/12/12 08:51:04;;;;;;;34.25;15.93;;;;;;;;;;6097514;23;20049;-92
2021/12/12 08:53:30;;;;;;;35.00;16.73;;;;;;;;;;6098163;23;20057;-92
2021/12/12 08:55:57;;;;;;;34.35;16.65;;;;;;;;;;6097750;23;20018;-93
2021/12/12 08:58:26;;;;;;;29.85;15.82;;;;;;;;;;6098076;23;20022;-92
2021/12/12 09:00:54;;;;;;;36.38;16.73;;;;;;;;;;6097744;23;20075;-92
2021/12/12 09:03:24;;;;;;;34.50;17.17;;;;;;;;;;6097651;23;20053;-92
2021/12/12 09:05:50;;;;;;;40.10;17.00;;;;;;;;;;6097330;23;20219;-90
2021/12/12 09:08:19;;;;;;;41.28;17.10;;;;;;;;;;6097639;23;20061;-91
2021/12/12 09:10:51;;;;;;;34.13;16.05;;;;;;;;;;6088444;23;20100;-90
2021/12/12 09:13:22;;;;;;;36.97;17.38;;;;;;;;;;6097985;23;20018;-90
2021/12/12 09:15:56;;;;;;;43.08;19.23;;;;;;;;;;6096929;23;20018;-90
2021/12/12 09:18:27;;;;;;;43.17;19.08;;;;;;;;;;6097675;23;20029;-89
2021/12/12 09:20:56;;;;;;;40.13;18.63;;;;;;;;;;6096952;23;20050;-90
2021/12/12 09:23:25;;;;;;;43.60;19.00;;;;;;;;;;6097320;23;20021;-89
2021/12/12 09:26:02;;;;;;;45.83;19.77;;;;;;;;;;6097355;23;20017;-95
2021/12/12 09:28:28;;;;;;;53.92;19.20;;;;;;;;;;6097825;23;20397;-94
2021/12/12 09:30:55;;;;;;;48.38;20.05;;;;;;;;;;6096808;23;20093;-95
2021/12/12 09:33:27;;;;;;;50.42;21.13;;;;;;;;;;6097324;23;20100;-94
2021/12/12 09:36:14;;;;;;;48.60;20.05;;;;;;;;;;6098711;23;20030;-96
2021/12/12 09:38:44;;;;;;;60.47;21.67;;;;;;;;;;6097734;23;20021;-96
2021/12/12 09:41:17;;;;;;;50.00;20.25;;;;;;;;;;6096561;23;20076;-95
2021/12/12 09:43:56;;;;;;;47.83;21.10;;;;;;;;;;6096578;23;20018;-96
2021/12/12 09:46:58;;;;;;;49.92;20.40;;;;;;;;;;6096284;23;20022;-96
2021/12/12 09:52:40;;;;;;;56.58;22.75;;;;;;;;;;6097490;23;20073;-96
2021/12/12 09:55:11;;;;;;;48.30;20.58;;;;;;;;;;6096299;23;20026;-94
2021/12/12 09:57:46;;;;;;;52.60;22.55;;;;;;;;;;6097968;23;20033;-93
2021/12/12 10:00:15;;;;;;;56.22;22.25;;;;;;;;;;6098258;23;20014;-93
2021/12/12 10:02:41;;;;;;;51.25;21.25;;;;;;;;;;6097163;23;20014;-90
2021/12/12 10:05:26;;;;;;;53.78;22.63;;;;;;;;;;6097573;23;20052;-91
2021/12/12 10:07:58;;;;;;;53.53;21.17;;;;;;;;;;6097043;23;20486;-92
2021/12/12 10:10:33;;;;;;;52.75;21.83;;;;;;;;;;6097178;23;20022;-90
2021/12/12 10:13:07;;;;;;;56.55;21.85;;;;;;;;;;6097555;23;20084;-94
2021/12/12 10:15:38;;;;;;;49.85;20.23;;;;;;;;;;6122025;23;20017;-89
2021/12/12 10:18:11;;;;;;;46.88;19.58;;;;;;;;;;6097585;23;20022;-90
2021/12/12 10:20:42;;;;;;;45.47;19.55;;;;;;;;;;6095820;23;20025;-93
2021/12/12 10:23:17;;;;;;;42.97;19.55;;;;;;;;;;6097698;23;20407;-95
2021/12/12 10:25:52;;;;;;;49.03;19.50;;;;;;;;;;6097726;23;20022;-95
2021/12/12 10:28:23;;;;;;;47.25;20.40;;;;;;;;;;6108546;23;20065;-96
2021/12/12 10:30:50;;;;;;;50.75;20.38;;;;;;;;;;6114976;23;20002;-96
2021/12/12 10:33:22;;;;;;;49.80;20.00;;;;;;;;;;6127383;23;20033;-91
2021/12/12 10:36:08;;;;;;;47.45;20.15;;;;;;;;;;6129608;23;20002;-95
2021/12/12 10:38:41;;;;;;;51.53;20.23;;;;;;;;;;6128639;23;20022;-96
2021/12/12 10:41:23;;;;;;;46.85;19.52;;;;;;;;;;6100990;23;20010;-90
2021/12/12 10:44:01;;;;;;;54.80;20.42;;;;;;;;;;6066617;23;20367;-92
2021/12/12 10:46:36;;;;;;;50.15;19.88;;;;;;;;;;6067822;23;20158;-92
2021/12/12 10:49:07;;;;;;;43.47;18.58;;;;;;;;;;6044002;23;20018;-92
2021/12/12 10:52:00;;;;;;;51.53;19.58;;;;;;;;;;6067514;23;20018;-92
2021/12/12 10:54:29;;;;;;;42.55;19.08;;;;;;;;;;6024988;23;20078;-95
2021/12/12 10:57:03;;;;;;;49.50;19.75;;;;;;;;;;6068487;23;20077;-92
2021/12/12 10:59:31;;;;;;;49.75;18.95;;;;;;;;;;6044088;23;20018;-93
2021/12/12 11:02:00;;;;;;;48.22;18.52;;;;;;;;;;6043937;23;20014;-96
2021/12/12 11:04:46;;;;;;;42.35;17.45;;;;;;;;;;6044096;23;20018;-95
2021/12/12 11:07:17;;;;;;;43.72;16.92;;;;;;;;;;6044302;23;20019;-89
2021/12/12 11:09:46;;;;;;;38.47;15.48;;;;;;;;;;6043573;23;20050;-88
2021/12/12 11:12:17;;;;;;;38.90;17.23;;;;;;;;;;6067237;23;20022;-88
2021/12/12 11:15:02;;;;;;;40.08;16.23;;;;;;;;;;6043894;23;20021;-88
2021/12/12 11:17:30;;;;;;;37.15;16.08;;;;;;;;;;6043727;23;20037;-89
2021/12/12 11:20:01;;;;;;;39.35;17.20;;;;;;;;;;6067051;23;20036;-89
2021/12/12 11:22:31;;;;;;;44.20;17.27;;;;;;;;;;6067503;23;20046;-88
2021/12/12 11:25:24;;;;;;;37.17;16.55;;;;;;;;;;6067107;23;20054;-88
2021/12/12 11:27:52;;;;;;;43.15;17.50;;;;;;;;;;6024316;23;20041;-88
2021/12/12 11:30:21;;;;;;;37.45;16.42;;;;;;;;;;6043407;23;20019;-88
2021/12/12 11:32:49;;;;;;;41.50;17.05;;;;;;;;;;6042334;23;20070;-88
2021/12/12 11:35:17;;;;;;;36.50;17.33;;;;;;;;;;6042500;23;20026;-88
2021/12/12 11:37:55;;;;;;;35.20;15.73;;;;;;;;;;6043006;23;20089;-88
2021/12/12 11:40:30;;;;;;;35.53;16.77;;;;;;;;;;6043255;23;20601;-88
2021/12/12 11:42:59;;;;;;;37.70;15.45;;;;;;;;;;6066976;23;20023;-88
2021/12/12 11:45:28;;;;;;;35.47;16.15;;;;;;;;;;6067162;23;20018;-89
2021/12/12 11:48:10;;;;;;;31.95;15.10;;;;;;;;;;6066454;23;20029;-87
2021/12/12 11:50:41;;;;;;;37.88;17.48;;;;;;;;;;6065737;23;20029;-87
2021/12/12 11:53:20;;;;;;;46.55;21.25;;;;;;;;;;6089337;23;20029;-88
2021/12/12 11:55:49;;;;;;;44.42;20.35;;;;;;;;;;6066557;23;20048;-87
2021/12/12 11:58:15;;;;;;;87.35;70.30;;;;;;;;;;6066553;23;20037;-87
2021/12/12 12:00:47;;;;;;;46.88;28.15;;;;;;;;;;6066315;23;20678;-88
2021/12/12 12:03:13;;;;;;;72.90;40.90;;;;;;;;;;6066430;23;20451;-88
2021/12/12 12:05:44;;;;;;;67.30;36.60;;;;;;;;;;6066821;23;20029;-88
2021/12/12 12:08:19;;;;;;;51.85;26.20;;;;;;;;;;6067209;23;20019;-88
2021/12/12 12:11:01;;;;;;;42.85;18.67;;;;;;;;;;6066689;23;20070;-88
2021/12/12 12:13:27;;;;;;;36.30;18.23;;;;;;;;;;6067031;23;20026;-87
2021/12/12 12:16:13;;;;;;;37.80;18.65;;;;;;;;;;6066828;23;20042;-87
2021/12/12 12:18:49;;;;;;;38.53;18.60;;;;;;;;;;6014018;23;20019;-88
2021/12/12 12:21:19;;;;;;;43.88;18.48;;;;;;;;;;6067691;23;20097;-96
2021/12/12 12:26:51;;;;;;;47.22;20.08;;;;;;;;;;6067602;23;20019;-95
2021/12/12 12:29:33;;;;;;;55.05;20.80;;;;;;;;;;6067916;23;20018;-95
2021/12/12 12:32:05;;;;;;;40.65;18.83;;;;;;;;;;6066585;23;20022;-96
2021/12/12 12:34:50;;;;;;;44.88;19.25;;;;;;;;;;6067678;23;20033;-95
2021/12/12 12:37:36;;;;;;;41.00;18.23;;;;;;;;;;6067350;23;20018;-94
2021/12/12 12:40:20;;;;;;;48.70;19.80;;;;;;;;;;6093595;23;20022;-95
2021/12/12 12:42:46;;;;;;;44.58;18.95;;;;;;;;;;6069486;23;20028;-95
2021/12/12 12:45:31;;;;;;;43.85;18.70;;;;;;;;;;6067626;23;20018;-95
2021/12/12 12:48:12;;;;;;;50.38;19.38;;;;;;;;;;6067260;23;20014;-95
2021/12/12 12:51:00;;;;;;;51.25;22.35;;;;;;;;;;6067238;23;20022;-95
2021/12/12 12:53:32;;;;;;;50.63;19.95;;;;;;;;;;6067397;23;20022;-95
2021/12/12 12:56:17;;;;;;;48.08;20.20;;;;;;;;;;6066460;23;20018;-94
2021/12/12 12:58:55;;;;;;;39.05;18.85;;;;;;;;;;6067454;23;20057;-95
2021/12/12 13:01:30;;;;;;;40.75;18.90;;;;;;;;;;6067042;23;20601;-95
2021/12/12 13:04:02;;;;;;;45.00;18.77;;;;;;;;;;6066735;23;20037;-94
2021/12/12 13:06:47;;;;;;;41.08;19.02;;;;;;;;;;6066580;23;20041;-96
2021/12/12 13:09:30;;;;;;;47.17;18.67;;;;;;;;;;6067077;23;20026;-95
2021/12/12 13:12:08;;;;;;;44.53;18.58;;;;;;;;;;6067596;23;20018;-95
2021/12/12 13:14:45;;;;;;;39.30;17.92;;;;;;;;;;6068778;23;20019;-94
2021/12/12 13:17:19;;;;;;;44.20;18.33;;;;;;;;;;6069296;23;20029;-95
2021/12/12 13:19:58;;;;;;;46.65;19.02;;;;;;;;;;6069066;23;20015;-92
2021/12/12 13:22:33;;;;;;;46.80;18.63;;;;;;;;;;6068348;23;20788;-93
2021/12/12 13:25:16;;;;;;;46.08;19.50;;;;;;;;;;6069123;23;20019;-94
2021/12/12 13:28:09;;;;;;;53.83;19.42;;;;;;;;;;6068888;23;20019;-95
2021/12/12 13:30:42;;;;;;;39.85;17.92;;;;;;;;;;6068467;23;20057;-94
2021/12/12 13:33:08;;;;;;;42.70;18.40;;;;;;;;;;6068927;23;20026;-94
2021/12/12 13:35:41;;;;;;;36.08;17.45;;;;;;;;;;6068641;23;20117;-95
2021/12/12 13:38:10;;;;;;;59.45;22.23;;;;;;;;;;6068448;23;20054;-94
2021/12/12 13:40:54;;;;;;;42.65;20.00;;;;;;;;;;6069123;23;20018;-94
2021/12/12 13:43:23;;;;;;;50.05;22.95;;;;;;;;;;6068573;23;20089;-95
2021/12/12 13:45:54;;;;;;;39.05;18.33;;;;;;;;;;6068246;23;20018;-95
2021/12/12 13:48:23;;;;;;;53.15;20.48;;;;;;;;;;6093058;23;20409;-94
2021/12/12 13:51:08;;;;;;;44.17;19.33;;;;;;;;;;6067894;23;20018;-95
2021/12/12 13:53:40;;;;;;;46.53;19.27;;;;;;;;;;6092108;23;20022;-95
2021/12/12 13:56:10;;;;;;;50.22;20.67;;;;;;;;;;6065969;23;20333;-94
2021/12/12 13:58:42;;;;;;;52.65;19.90;;;;;;;;;;6068594;23;20097;-95
2021/12/12 14:01:10;;;;;;;59.25;20.45;;;;;;;;;;6068356;23;20062;-95
2021/12/12 14:03:43;;;;;;;38.80;17.88;;;;;;;;;;6068151;23;20451;-95
2021/12/12 14:06:10;;;;;;;46.00;20.05;;;;;;;;;;6068224;23;20014;-95
2021/12/12 14:08:41;;;;;;;45.78;17.75;;;;;;;;;;6067339;23;20076;-94
2021/12/12 14:11:13;;;;;;;46.13;18.83;;;;;;;;;;6067235;23;20097;-94
2021/12/12 14:13:42;;;;;;;56.58;20.83;;;;;;;;;;6067570;23;20525;-93
2021/12/12 14:16:24;;;;;;;44.75;18.63;;;;;;;;;;6067665;23;20046;-93
2021/12/12 14:18:52;;;;;;;48.22;20.58;;;;;;;;;;6066859;23;20027;-93
2021/12/12 14:21:19;;;;;;;52.85;19.63;;;;;;;;;;6066433;23;20026;-93
2021/12/12 14:23:46;;;;;;;38.78;18.08;;;;;;;;;;6067449;23;20065;-94
2021/12/12 14:26:23;;;;;;;42.60;18.25;;;;;;;;;;6068026;23;20085;-94
2021/12/12 14:28:51;;;;;;;39.15;17.77;;;;;;;;;;6067294;23;20459;-93
2021/12/12 14:31:20;;;;;;;44.60;18.38;;;;;;;;;;6067327;23;20466;-94
2021/12/12 14:33:47;;;;;;;40.30;18.08;;;;;;;;;;6067336;23;20022;-92
2021/12/12 14:36:19;;;;;;;44.35;19.30;;;;;;;;;;6067260;23;20015;-92
2021/12/12 14:38:45;;;;;;;31.35;16.67;;;;;;;;;;6067161;23;20098;-93
2021/12/12 14:41:11;;;;;;;35.95;16.55;;;;;;;;;;6067355;23;20410;-94
2021/12/12 14:43:43;;;;;;;36.80;16.85;;;;;;;;;;6067690;23;20014;-93
2021/12/12 14:46:17;;;;;;;34.05;16.45;;;;;;;;;;6067400;23;20467;-94
2021/12/12 14:48:52;;;;;;;33.70;16.38;;;;;;;;;;6067902;23;20018;-93
2021/12/12 14:51:29;;;;;;;31.83;16.33;;;;;;;;;;6067742;23;20025;-93
2021/12/12 14:53:56;;;;;;;41.35;17.52;;;;;;;;;;6067291;23;20054;-94
2021/12/12 14:56:30;;;;;;;44.30;19.45;;;;;;;;;;6067454;23;20565;-93
2021/12/12 14:58:56;;;;;;;;;;;;;;;;;;6067931;23;20018;-94